Time;durP1;ratioP1;P1;durP2;ratioP2;P2;SDS_P1;SDS_P2;PMS_P1;PMS_P2;Temp;Humidity;BMP_temperature;BMP_pressure;BME280_temperature;BME280_humidity;BME280_pressure;Samples;Min_cycle;Max_cycle;Signal;HPM_P1;HPM_P2
2023/01/18 00:00:36;;;;;;;5.77;3.77;;;0.20;99.90;;;;;;6153767;23;20496;-76
2023/01/18 00:03:08;;;;;;;6.00;3.87;;;0.20;99.90;;;;;;6154631;23;20401;-77
2023/01/18 00:05:39;;;;;;;6.13;3.80;;;0.20;99.90;;;;;;6154279;23;20421;-76
2023/01/18 00:08:08;;;;;;;6.00;3.40;;;0.20;99.90;;;;;;6154054;23;20378;-76
2023/01/18 00:10:36;;;;;;;4.50;3.35;;;0.20;99.90;;;;;;6154435;23;20424;-76
2023/01/18 00:13:05;;;;;;;4.97;3.33;;;0.20;99.90;;;;;;6154660;23;20409;-76
2023/01/18 00:15:33;;;;;;;3.83;3.17;;;0.20;99.90;;;;;;6154292;23;20437;-76
2023/01/18 00:18:01;;;;;;;4.30;3.47;;;0.20;99.90;;;;;;6154862;23;20672;-76
2023/01/18 00:20:31;;;;;;;4.47;3.20;;;0.10;99.90;;;;;;6154548;23;20416;-76
2023/01/18 00:23:00;;;;;;;4.53;3.30;;;0.10;99.90;;;;;;6153759;23;20442;-76
2023/01/18 00:25:30;;;;;;;4.27;3.30;;;0.10;99.90;;;;;;6153607;23;20185;-76
2023/01/18 00:27:58;;;;;;;5.00;3.60;;;0.00;99.90;;;;;;6153998;23;20760;-76
2023/01/18 00:30:27;;;;;;;6.03;3.30;;;0.00;99.90;;;;;;6153488;23;20544;-77
2023/01/18 00:32:58;;;;;;;5.80;3.20;;;-0.10;99.90;;;;;;6153609;23;20451;-75
2023/01/18 00:35:27;;;;;;;4.00;3.30;;;-0.10;99.90;;;;;;6154436;23;20416;-77
2023/01/18 00:37:57;;;;;;;3.83;3.20;;;-0.20;99.90;;;;;;6153600;23;20409;-76
2023/01/18 00:40:27;;;;;;;3.77;3.20;;;-0.20;99.90;;;;;;6154019;23;20413;-77
2023/01/18 00:45:42;;;;;;;5.43;3.73;;;-0.20;99.90;;;;;;6154518;23;20401;-77
2023/01/18 00:48:10;;;;;;;5.03;3.43;;;-0.20;99.90;;;;;;6154036;23;20433;-78
2023/01/18 00:50:38;;;;;;;5.70;3.50;;;-0.30;99.90;;;;;;6153912;23;20951;-78
2023/01/18 00:53:07;;;;;;;5.80;3.40;;;-0.30;99.90;;;;;;6153718;23;20453;-77
2023/01/18 00:55:35;;;;;;;6.77;3.67;;;-0.40;99.90;;;;;;6153869;23;20417;-77
2023/01/18 00:58:03;;;;;;;6.33;3.63;;;-0.40;99.90;;;;;;6153679;23;20499;-77
2023/01/18 01:00:32;;;;;;;5.70;3.93;;;-0.50;99.90;;;;;;6154228;23;20443;-77
2023/01/18 01:03:01;;;;;;;4.10;3.70;;;-0.60;99.90;;;;;;6153600;23;20915;-77
2023/01/18 01:08:16;;;;;;;6.27;3.83;;;-0.60;99.90;;;;;;6154019;23;20493;-76
2023/01/18 01:10:46;;;;;;;4.30;3.60;;;-0.60;99.90;;;;;;6154493;23;20408;-76
2023/01/18 01:27:10;;;;;;;5.80;3.90;;;-0.70;99.90;;;;;;6154180;23;20386;-76
2023/01/18 01:29:38;;;;;;;5.03;3.37;;;-0.80;99.90;;;;;;6153566;23;20451;-76
2023/01/18 01:32:07;;;;;;;5.67;3.67;;;-0.80;99.90;;;;;;6152746;23;20786;-76
2023/01/18 01:34:35;;;;;;;5.37;3.80;;;-0.80;99.90;;;;;;6153806;23;20443;-76
2023/01/18 01:37:04;;;;;;;4.60;3.60;;;-0.90;99.90;;;;;;6153992;23;20443;-77
2023/01/18 01:39:33;;;;;;;4.87;3.50;;;-0.80;99.90;;;;;;6153328;23;20933;-76
2023/01/18 01:42:01;;;;;;;4.83;3.30;;;-0.80;99.90;;;;;;6153037;23;20582;-78
2023/01/18 01:44:50;;;;;;;5.13;3.53;;;-0.90;99.90;;;;;;6153998;23;20409;-77
2023/01/18 01:47:31;;;;;;;5.60;3.90;;;-0.90;99.90;;;;;;6153607;23;20713;-78
2023/01/18 01:50:04;;;;;;;4.97;3.70;;;-0.90;99.90;;;;;;6154034;23;20721;-77
2023/01/18 01:52:36;;;;;;;6.70;3.70;;;-0.90;99.90;;;;;;6155203;23;20475;-77
2023/01/18 01:55:13;;;;;;;6.00;3.70;;;-0.90;99.90;;;;;;6155162;23;20507;-77
2023/01/18 01:57:47;;;;;;;6.17;3.80;;;-0.80;99.90;;;;;;6155707;23;20503;-78
2023/01/18 02:00:19;;;;;;;5.93;3.53;;;-0.90;99.90;;;;;;6156147;23;20388;-77
2023/01/18 02:02:50;;;;;;;3.93;3.50;;;-0.90;99.90;;;;;;6154994;23;20439;-77
2023/01/18 02:05:19;;;;;;;4.80;3.50;;;-0.90;99.90;;;;;;6155771;23;20409;-77
2023/01/18 02:07:47;;;;;;;4.83;3.60;;;-0.90;99.90;;;;;;6155402;23;20990;-78
2023/01/18 02:10:17;;;;;;;6.37;3.67;;;-0.90;99.90;;;;;;6155787;23;20415;-77
2023/01/18 02:12:48;;;;;;;4.57;3.80;;;-1.00;99.90;;;;;;6154611;23;20471;-76
2023/01/18 02:15:16;;;;;;;5.73;3.83;;;-1.00;99.90;;;;;;6155438;23;20422;-77
2023/01/18 02:18:14;;;;;;;5.70;3.90;;;-0.90;99.90;;;;;;6155450;23;20419;-76
2023/01/18 02:21:11;;;;;;;5.60;3.97;;;-0.90;99.90;;;;;;6155763;23;20453;-77
2023/01/18 02:24:28;;;;;;;5.37;3.70;;;-0.90;99.90;;;;;;6155141;23;20390;-77
2023/01/18 02:27:06;;;;;;;6.03;3.70;;;-0.80;99.90;;;;;;6155845;23;20448;-77
2023/01/18 02:30:03;;;;;;;5.13;4.30;;;-0.70;99.90;;;;;;6155357;23;20405;-75
2023/01/18 02:33:01;;;;;;;4.90;3.33;;;-0.60;99.90;;;;;;6154823;23;20745;-76
2023/01/18 02:35:42;;;;;;;8.03;3.73;;;-0.50;99.90;;;;;;6155047;23;20407;-77
2023/01/18 02:38:15;;;;;;;4.33;3.30;;;-0.50;99.90;;;;;;6155193;23;20381;-77
2023/01/18 02:40:57;;;;;;;4.50;3.20;;;-0.40;99.90;;;;;;6155385;23;20413;-78
2023/01/18 02:49:09;;;;;;;4.07;3.03;;;-0.40;99.90;;;;;;6139567;23;20506;-77
2023/01/18 02:51:38;;;;;;;4.20;3.00;;;-0.40;99.90;;;;;;6154845;23;20491;-76
2023/01/18 02:54:08;;;;;;;3.10;2.57;;;-0.50;99.90;;;;;;6154705;23;20452;-77
2023/01/18 02:56:40;;;;;;;4.87;2.90;;;-0.50;99.90;;;;;;6154612;23;20404;-77
2023/01/18 02:59:14;;;;;;;3.37;2.97;;;-0.50;99.90;;;;;;6155240;23;20393;-77
2023/01/18 03:01:47;;;;;;;5.00;3.00;;;-0.60;99.90;;;;;;6154233;23;20447;-77
2023/01/18 03:04:18;;;;;;;5.90;3.73;;;-0.60;99.90;;;;;;6154957;23;20393;-77
2023/01/18 03:06:52;;;;;;;4.60;3.23;;;-0.70;99.90;;;;;;6155225;23;20472;-77
2023/01/18 03:09:25;;;;;;;4.77;3.20;;;-0.70;99.90;;;;;;6154523;23;20404;-77
2023/01/18 03:12:00;;;;;;;4.57;3.00;;;-0.60;99.90;;;;;;6153875;23;20424;-75
2023/01/18 03:14:39;;;;;;;4.67;3.30;;;-0.50;99.90;;;;;;6155261;23;20780;-78
2023/01/18 03:17:14;;;;;;;4.70;2.60;;;-0.50;99.90;;;;;;6154291;23;20717;-78
2023/01/18 03:20:06;;;;;;;3.23;2.57;;;-0.50;99.90;;;;;;6154731;23;20385;-76
2023/01/18 03:25:27;;;;;;;3.20;2.53;;;-0.40;99.90;;;;;;6155272;23;20413;-76
2023/01/18 03:33:44;;;;;;;2.93;2.40;;;-0.30;99.90;;;;;;6153736;23;20449;-77
2023/01/18 03:36:17;;;;;;;2.80;2.40;;;-0.20;99.90;;;;;;6154145;23;20417;-77
2023/01/18 03:38:50;;;;;;;4.07;2.53;;;-0.20;99.90;;;;;;6154816;23;20480;-77
2023/01/18 03:41:20;;;;;;;3.80;2.53;;;-0.30;99.90;;;;;;6154484;23;20426;-77
2023/01/18 03:43:51;;;;;;;5.27;3.00;;;-0.30;99.90;;;;;;6153995;23;20484;-77
2023/01/18 03:46:21;;;;;;;2.87;2.40;;;-0.30;99.90;;;;;;6154527;23;20390;-77
2023/01/18 03:48:50;;;;;;;3.67;2.70;;;-0.30;99.90;;;;;;6154685;23;20413;-76
2023/01/18 03:51:25;;;;;;;4.43;2.60;;;-0.30;99.90;;;;;;6153961;23;20742;-77
2023/01/18 03:54:00;;;;;;;3.70;2.67;;;-0.30;99.90;;;;;;6153963;23;20443;-77
2023/01/18 03:56:36;;;;;;;5.83;3.13;;;-0.30;99.90;;;;;;6154142;23;20417;-76
2023/01/18 03:59:06;;;;;;;3.90;2.83;;;-0.30;99.90;;;;;;6154502;23;20492;-75
2023/01/18 04:01:34;;;;;;;4.03;3.13;;;-0.30;99.90;;;;;;6154692;23;20791;-76
2023/01/18 04:04:04;;;;;;;3.47;2.87;;;-0.30;99.90;;;;;;6153914;23;20916;-76
2023/01/18 04:06:33;;;;;;;3.83;2.70;;;-0.30;99.90;;;;;;6154200;23;20475;-76
2023/01/18 04:09:01;;;;;;;3.10;2.77;;;-0.40;99.90;;;;;;6154239;23;20409;-76
2023/01/18 04:11:29;;;;;;;4.30;3.10;;;-0.30;99.90;;;;;;6154417;23;20420;-76
2023/01/18 04:13:57;;;;;;;4.27;2.97;;;-0.30;99.90;;;;;;6154059;23;20490;-75
2023/01/18 04:16:25;;;;;;;3.80;3.00;;;-0.30;99.90;;;;;;6154395;23;20417;-76
2023/01/18 04:18:53;;;;;;;5.60;3.10;;;-0.30;99.90;;;;;;6153806;23;20776;-76
2023/01/18 04:21:22;;;;;;;5.07;2.90;;;-0.30;99.90;;;;;;6155645;23;20493;-76
2023/01/18 04:23:50;;;;;;;4.40;2.90;;;-0.40;99.90;;;;;;6153265;23;20407;-77
2023/01/18 04:26:19;;;;;;;4.20;3.00;;;-0.40;99.90;;;;;;6154088;23;20416;-76
2023/01/18 04:28:48;;;;;;;3.93;2.87;;;-0.40;99.90;;;;;;6153968;23;20409;-75
2023/01/18 04:31:16;;;;;;;3.90;3.00;;;-0.40;99.90;;;;;;6153886;23;20436;-76
2023/01/18 04:33:44;;;;;;;3.90;2.97;;;-0.50;99.90;;;;;;6154272;23;20451;-76
2023/01/18 04:36:12;;;;;;;5.27;3.07;;;-0.50;99.90;;;;;;6154730;23;20413;-76
2023/01/18 04:38:41;;;;;;;3.33;2.90;;;-0.50;99.90;;;;;;6154445;23;20406;-76
2023/01/18 04:41:10;;;;;;;4.57;3.00;;;-0.60;99.90;;;;;;6154448;23;20409;-76
2023/01/18 04:43:38;;;;;;;3.40;2.70;;;-0.60;99.90;;;;;;6154110;23;20405;-77
2023/01/18 04:46:06;;;;;;;3.70;2.80;;;-0.70;99.90;;;;;;6153689;23;20784;-77
2023/01/18 04:48:34;;;;;;;4.67;2.77;;;-0.70;99.90;;;;;;6154198;23;20437;-77
2023/01/18 04:51:02;;;;;;;4.17;2.80;;;-0.70;99.90;;;;;;6154085;23;20928;-77
2023/01/18 04:53:31;;;;;;;3.10;2.80;;;-0.70;99.90;;;;;;6153514;23;20441;-77
2023/01/18 04:56:00;;;;;;;3.20;2.47;;;-0.70;99.90;;;;;;6153522;23;20405;-77
2023/01/18 04:58:28;;;;;;;5.90;3.00;;;-0.80;99.90;;;;;;6153333;23;20813;-76
2023/01/18 05:01:00;;;;;;;4.00;2.77;;;-0.80;99.90;;;;;;6153284;23;20425;-77
2023/01/18 05:03:29;;;;;;;4.00;2.80;;;-0.80;99.90;;;;;;6152485;23;20385;-76
2023/01/18 05:05:57;;;;;;;3.47;2.90;;;-0.80;99.90;;;;;;6152998;23;20409;-78
2023/01/18 05:08:25;;;;;;;3.93;2.83;;;-0.80;99.90;;;;;;6151082;23;20422;-77
2023/01/18 05:10:59;;;;;;;4.07;3.03;;;-0.80;99.90;;;;;;6151312;23;20487;-76
2023/01/18 05:13:29;;;;;;;3.77;3.00;;;-0.90;99.90;;;;;;6151923;23;20474;-75
2023/01/18 05:16:00;;;;;;;3.20;2.80;;;-0.90;99.90;;;;;;6151551;23;20408;-78
2023/01/18 05:18:33;;;;;;;3.43;2.80;;;-1.00;99.90;;;;;;6152872;23;20412;-77
2023/01/18 05:21:01;;;;;;;4.30;2.80;;;-1.00;99.90;;;;;;6152446;23;20459;-77
2023/01/18 05:23:29;;;;;;;4.73;3.40;;;-1.10;99.90;;;;;;6153300;23;20439;-77
2023/01/18 05:25:58;;;;;;;4.53;3.20;;;-1.10;99.90;;;;;;6154235;23;20770;-77
2023/01/18 05:28:29;;;;;;;3.37;2.93;;;-1.20;99.90;;;;;;6155173;23;20411;-77
2023/01/18 05:30:59;;;;;;;5.37;3.23;;;-1.30;99.90;;;;;;6156429;23;20510;-76
2023/01/18 05:33:27;;;;;;;5.33;3.40;;;-1.30;99.90;;;;;;6156678;23;20417;-76
2023/01/18 05:35:55;;;;;;;3.57;3.17;;;-1.40;99.90;;;;;;6156534;23;20484;-77
2023/01/18 05:38:23;;;;;;;3.90;3.13;;;-1.50;99.90;;;;;;6155014;23;20493;-77
2023/01/18 05:40:53;;;;;;;4.50;3.30;;;-1.50;99.90;;;;;;6153754;23;20413;-76
2023/01/18 05:43:23;;;;;;;4.70;3.70;;;-1.50;99.90;;;;;;6153347;23;20409;-77
2023/01/18 05:45:52;;;;;;;4.53;3.67;;;-1.50;99.90;;;;;;6154017;23;20421;-76
2023/01/18 05:48:21;;;;;;;5.50;3.80;;;-1.60;99.90;;;;;;6154129;23;20492;-77
2023/01/18 05:50:49;;;;;;;5.23;3.80;;;-1.70;99.90;;;;;;6154040;23;20917;-77
2023/01/18 05:53:19;;;;;;;5.40;4.10;;;-1.70;99.90;;;;;;6153725;23;20419;-78
2023/01/18 05:55:57;;;;;;;5.47;4.10;;;-1.60;99.90;;;;;;6154382;23;20543;-78
2023/01/18 05:58:26;;;;;;;5.37;4.17;;;-1.60;99.90;;;;;;5936620;23;5154127;-78
2023/01/18 06:00:55;;;;;;;4.17;3.20;;;-1.40;99.90;;;;;;6157122;23;20177;-78
2023/01/18 06:03:25;;;;;;;6.43;3.50;;;-1.30;99.90;;;;;;6158307;23;20413;-77
2023/01/18 06:05:53;;;;;;;5.30;3.53;;;-1.20;99.90;;;;;;6155593;23;20405;-77
2023/01/18 06:08:21;;;;;;;4.70;3.03;;;-1.10;99.90;;;;;;6155333;23;20502;-78
2023/01/18 06:10:53;;;;;;;4.57;3.10;;;-1.00;99.90;;;;;;6155912;23;20468;-77
2023/01/18 06:13:22;;;;;;;4.17;3.07;;;-0.90;99.90;;;;;;6155698;23;20412;-78
2023/01/18 06:15:50;;;;;;;4.70;2.80;;;-0.90;99.90;;;;;;6155947;23;20441;-77
2023/01/18 06:18:21;;;;;;;4.33;3.10;;;-0.70;99.90;;;;;;6156119;23;20413;-76
2023/01/18 06:20:50;;;;;;;5.17;3.43;;;-0.50;99.90;;;;;;6155642;23;20507;-78
2023/01/18 06:23:18;;;;;;;4.77;3.50;;;-0.50;99.90;;;;;;6155445;23;20738;-77
2023/01/18 06:25:46;;;;;;;4.83;3.20;;;-0.40;99.90;;;;;;6155271;23;20402;-78
2023/01/18 06:28:14;;;;;;;4.67;3.20;;;-0.40;99.90;;;;;;6153361;23;20409;-78
2023/01/18 06:30:43;;;;;;;5.70;3.77;;;-0.30;99.90;;;;;;6154494;23;20438;-76
2023/01/18 06:33:11;;;;;;;5.17;3.20;;;-0.30;99.90;;;;;;6153570;23;20492;-78
2023/01/18 06:35:42;;;;;;;4.27;3.07;;;-0.10;99.90;;;;;;6155155;23;20586;-77
2023/01/18 06:38:10;;;;;;;4.10;3.00;;;-0.10;99.90;;;;;;6155818;23;20469;-76
2023/01/18 06:40:38;;;;;;;4.47;3.23;;;-0.10;99.90;;;;;;6154433;23;20412;-76
2023/01/18 06:43:07;;;;;;;3.77;3.00;;;-0.10;99.90;;;;;;6155736;23;20456;-78
2023/01/18 06:45:35;;;;;;;5.90;2.90;;;0.00;99.90;;;;;;6155392;23;20406;-76
2023/01/18 06:48:04;;;;;;;3.13;2.80;;;-0.10;99.90;;;;;;6155730;23;20500;-76
2023/01/18 06:50:32;;;;;;;3.40;2.80;;;0.00;99.90;;;;;;6154862;23;20499;-76
2023/01/18 06:53:01;;;;;;;3.17;2.67;;;-0.10;99.90;;;;;;6155456;23;20831;-77
2023/01/18 06:55:29;;;;;;;3.53;3.00;;;-0.10;99.90;;;;;;6154716;23;20625;-77
2023/01/18 06:57:57;;;;;;;3.77;2.93;;;-0.10;99.90;;;;;;6154789;23;20428;-75
2023/01/18 07:00:26;;;;;;;3.37;2.80;;;0.00;99.90;;;;;;6155286;23;20422;-76
2023/01/18 07:02:55;;;;;;;4.73;2.70;;;0.00;99.90;;;;;;6154054;23;20490;-77
2023/01/18 07:05:23;;;;;;;4.33;2.83;;;0.00;99.90;;;;;;6155099;23;20429;-75
2023/01/18 07:07:52;;;;;;;3.13;2.53;;;0.00;99.90;;;;;;6155346;23;20409;-75
2023/01/18 07:10:21;;;;;;;6.07;2.63;;;0.00;99.90;;;;;;6154956;23;20404;-76
2023/01/18 07:12:49;;;;;;;3.00;2.33;;;0.00;99.90;;;;;;6155125;23;20417;-76
2023/01/18 07:15:20;;;;;;;3.73;2.70;;;-0.10;99.90;;;;;;6155292;23;20519;-77
2023/01/18 07:17:50;;;;;;;3.20;2.30;;;-0.10;99.90;;;;;;6154761;23;20413;-78
2023/01/18 07:20:19;;;;;;;3.80;2.43;;;-0.10;99.90;;;;;;6154682;23;20914;-77
2023/01/18 07:22:51;;;;;;;3.03;2.40;;;0.00;99.90;;;;;;6154766;23;20418;-78
2023/01/18 07:25:21;;;;;;;11.20;9.40;;;0.10;99.90;;;;;;6154797;23;20432;-78
2023/01/18 07:27:49;;;;;;;23.87;20.27;;;0.00;99.90;;;;;;6154661;23;20411;-77
2023/01/18 07:30:18;;;;;;;9.70;8.27;;;0.10;99.90;;;;;;6153966;23;20900;-78
2023/01/18 07:32:49;;;;;;;16.07;14.37;;;0.20;99.90;;;;;;6154692;23;20517;-77
2023/01/18 07:35:18;;;;;;;14.13;12.60;;;0.30;99.90;;;;;;6154760;23;20434;-78
2023/01/18 07:37:49;;;;;;;28.50;22.53;;;0.30;99.90;;;;;;6154440;23;20185;-78
2023/01/18 07:40:17;;;;;;;17.13;14.13;;;0.40;99.90;;;;;;6154880;23;20452;-77
2023/01/18 07:42:47;;;;;;;8.20;6.23;;;0.50;99.90;;;;;;6154582;23;20181;-77
2023/01/18 07:45:15;;;;;;;7.73;4.47;;;0.60;99.90;;;;;;6154808;23;20524;-78
2023/01/18 07:47:45;;;;;;;4.67;3.37;;;0.70;99.90;;;;;;6155112;23;20420;-77
2023/01/18 07:50:13;;;;;;;5.30;3.60;;;0.80;99.90;;;;;;6154356;23;20190;-78
2023/01/18 07:52:42;;;;;;;5.60;3.40;;;0.90;99.90;;;;;;6154427;23;20182;-77
2023/01/18 07:55:10;;;;;;;4.53;3.10;;;0.90;99.90;;;;;;6154789;23;20446;-77
2023/01/18 07:57:38;;;;;;;4.40;2.77;;;1.00;99.90;;;;;;6154665;23;20195;-78
2023/01/18 08:00:11;;;;;;;3.93;3.20;;;1.00;99.90;;;;;;6153740;23;20269;-78
2023/01/18 08:02:39;;;;;;;3.67;3.10;;;1.10;99.90;;;;;;6154331;23;20178;-78
2023/01/18 08:05:08;;;;;;;3.63;2.70;;;1.10;99.90;;;;;;6154857;23;20519;-78
2023/01/18 08:07:36;;;;;;;4.40;2.73;;;1.30;99.90;;;;;;6154888;23;20196;-77
2023/01/18 08:10:05;;;;;;;6.80;3.70;;;1.40;99.90;;;;;;6155667;23;20623;-77
2023/01/18 08:12:33;;;;;;;5.20;2.90;;;1.40;99.90;;;;;;6158145;23;20646;-77
2023/01/18 08:15:03;;;;;;;6.67;3.80;;;1.60;99.90;;;;;;6157924;23;20205;-76
2023/01/18 08:17:33;;;;;;;10.50;7.40;;;1.70;99.90;;;;;;6157662;23;20222;-77
2023/01/18 08:20:03;;;;;;;7.97;4.97;;;1.90;99.90;;;;;;6157510;23;20677;-77
2023/01/18 08:22:32;;;;;;;7.27;5.07;;;2.10;99.90;;;;;;6156062;23;20181;-77
2023/01/18 08:25:00;;;;;;;6.33;4.30;;;2.20;99.90;;;;;;6155293;23;20182;-78
2023/01/18 08:27:28;;;;;;;6.17;3.13;;;2.40;99.90;;;;;;6154136;23;20186;-77
2023/01/18 08:29:56;;;;;;;4.13;3.00;;;2.60;99.90;;;;;;6155037;23;20196;-77
2023/01/18 08:32:24;;;;;;;3.83;2.97;;;2.80;99.90;;;;;;6155671;23;20229;-77
2023/01/18 08:34:55;;;;;;;4.93;3.80;;;3.10;99.90;;;;;;6154708;23;20216;-77
2023/01/18 08:37:23;;;;;;;4.87;3.70;;;3.40;99.90;;;;;;6154386;23;20459;-77
2023/01/18 08:39:51;;;;;;;4.53;3.47;;;3.80;99.90;;;;;;6154572;23;20264;-77
2023/01/18 08:42:19;;;;;;;5.43;2.80;;;4.40;99.90;;;;;;6154324;23;20264;-77
2023/01/18 08:44:48;;;;;;;3.70;2.13;;;5.10;99.90;;;;;;6154301;23;20284;-78
2023/01/18 08:47:16;;;;;;;2.80;2.10;;;5.50;99.90;;;;;;6153948;23;20264;-78
2023/01/18 08:49:45;;;;;;;3.03;2.10;;;5.50;99.90;;;;;;6154346;23;20217;-76
2023/01/18 08:52:14;;;;;;;3.27;2.30;;;5.60;99.90;;;;;;6152553;23;20587;-78
2023/01/18 08:54:42;;;;;;;3.47;2.23;;;5.50;99.90;;;;;;6154914;23;20556;-76
2023/01/18 08:57:11;;;;;;;4.37;1.83;;;5.50;99.90;;;;;;6153682;23;20247;-76
2023/01/18 08:59:39;;;;;;;2.53;2.03;;;5.00;99.90;;;;;;6154176;23;20182;-76
2023/01/18 09:02:09;;;;;;;2.50;2.00;;;4.40;99.90;;;;;;6153606;23;20192;-76
2023/01/18 09:04:37;;;;;;;3.03;2.03;;;4.50;99.90;;;;;;6154594;23;20188;-77
2023/01/18 09:07:05;;;;;;;2.63;1.60;;;4.50;99.90;;;;;;6154024;23;20184;-77
2023/01/18 09:09:34;;;;;;;1.93;1.70;;;4.50;99.90;;;;;;6154344;23;20521;-77
2023/01/18 09:12:03;;;;;;;3.20;1.73;;;4.50;99.90;;;;;;6154077;23;20181;-77
2023/01/18 09:14:31;;;;;;;1.40;1.30;;;4.40;99.90;;;;;;6154417;23;20182;-76
2023/01/18 09:16:59;;;;;;;1.80;1.40;;;4.10;99.90;;;;;;6153557;23;20201;-75
2023/01/18 09:19:27;;;;;;;3.20;1.50;;;3.70;99.90;;;;;;6153935;23;20192;-75
2023/01/18 09:21:55;;;;;;;2.27;1.40;;;3.50;99.90;;;;;;6153181;23;20268;-75
2023/01/18 09:24:24;;;;;;;2.77;1.83;;;3.50;99.90;;;;;;6153964;23;20186;-76
2023/01/18 09:26:54;;;;;;;24.00;21.80;;;3.40;99.90;;;;;;6154001;23;20209;-75
2023/01/18 09:29:22;;;;;;;20.93;18.43;;;3.50;99.90;;;;;;6153963;23;20178;-76
2023/01/18 09:31:52;;;;;;;5.80;4.93;;;3.60;99.90;;;;;;6168783;23;20206;-76
2023/01/18 09:34:21;;;;;;;9.03;7.27;;;3.50;99.90;;;;;;6154781;23;20565;-75
2023/01/18 09:36:51;;;;;;;3.33;2.03;;;3.30;99.90;;;;;;6153895;23;20202;-77
2023/01/18 09:39:19;;;;;;;8.23;5.63;;;3.10;99.90;;;;;;6153360;23;20654;-76
2023/01/18 09:41:52;;;;;;;1.93;1.80;;;3.10;99.90;;;;;;6153613;23;20221;-77
2023/01/18 09:44:28;;;;;;;1.80;1.50;;;2.90;99.90;;;;;;6154020;23;20245;-75
2023/01/18 09:47:03;;;;;;;1.87;1.50;;;2.70;99.90;;;;;;6153375;23;20173;-77
2023/01/18 09:49:36;;;;;;;1.93;1.50;;;2.70;99.90;;;;;;6153734;23;20169;-76
2023/01/18 09:52:19;;;;;;;2.57;1.67;;;2.60;99.90;;;;;;6153792;23;20209;-77
2023/01/18 09:54:56;;;;;;;1.80;1.50;;;2.70;99.90;;;;;;6153315;23;20205;-75
2023/01/18 09:57:38;;;;;;;2.50;1.80;;;2.60;99.90;;;;;;6152308;23;20236;-76
2023/01/18 10:00:17;;;;;;;2.13;1.93;;;2.50;99.90;;;;;;6153619;23;20276;-76
2023/01/18 10:02:50;;;;;;;2.90;2.00;;;2.60;99.90;;;;;;6153229;23;20170;-78
2023/01/18 10:05:22;;;;;;;2.40;2.03;;;2.80;99.90;;;;;;6153122;23;20173;-75
2023/01/18 10:08:01;;;;;;;2.90;1.97;;;3.40;99.90;;;;;;6153883;23;20264;-78
2023/01/18 10:10:33;;;;;;;12.53;10.93;;;3.70;99.90;;;;;;6153730;23;20484;-77
2023/01/18 10:13:20;;;;;;;3.90;2.83;;;4.70;99.90;;;;;;6152414;23;20718;-80
2023/01/18 10:15:50;;;;;;;3.22;2.40;;;5.00;99.90;;;;;;6153333;23;20401;-78
2023/01/18 10:18:19;;;;;;;4.30;2.67;;;4.90;99.90;;;;;;6155301;23;20210;-77
2023/01/18 10:20:51;;;;;;;5.13;2.60;;;4.70;99.90;;;;;;6154944;23;20260;-77
2023/01/18 10:23:24;;;;;;;1.60;1.43;;;4.30;99.90;;;;;;6155047;23;20251;-78
2023/01/18 10:25:55;;;;;;;6.13;3.77;;;4.10;99.90;;;;;;6155514;23;20189;-78
2023/01/18 10:28:35;;;;;;;6.23;4.20;;;4.00;99.90;;;;;;6155177;23;20189;-78
2023/01/18 10:31:29;;;;;;;3.87;2.50;;;3.70;99.90;;;;;;6155623;23;20202;-78
2023/01/18 10:33:59;;;;;;;2.67;1.80;;;3.50;99.90;;;;;;6158002;23;20177;-79
2023/01/18 10:36:32;;;;;;;3.67;2.10;;;3.40;99.90;;;;;;6156786;23;20577;-80
2023/01/18 10:39:04;;;;;;;1.70;1.57;;;3.20;99.90;;;;;;6156150;23;20268;-78
2023/01/18 10:41:37;;;;;;;1.53;1.43;;;3.10;99.90;;;;;;6156627;23;20266;-78
2023/01/18 10:44:07;;;;;;;1.63;1.40;;;3.20;99.90;;;;;;6155360;23;20213;-77
2023/01/18 10:46:36;;;;;;;2.67;1.87;;;3.30;99.90;;;;;;6155063;23;20166;-78
2023/01/18 10:49:07;;;;;;;1.90;1.70;;;3.10;99.90;;;;;;6154907;23;20248;-80
2023/01/18 10:51:39;;;;;;;2.30;1.70;;;3.20;99.90;;;;;;6155131;23;20697;-79
2023/01/18 10:54:23;;;;;;;1.93;1.60;;;3.30;99.90;;;;;;6154925;23;20158;-78
2023/01/18 10:57:02;;;;;;;1.77;1.53;;;3.50;99.90;;;;;;6154489;23;20252;-79
2023/01/18 10:59:37;;;;;;;7.00;6.33;;;3.50;99.90;;;;;;6154924;23;20227;-79
2023/01/18 11:02:22;;;;;;;3.37;2.83;;;3.30;99.90;;;;;;6154895;23;20172;-78
2023/01/18 11:04:55;;;;;;;2.67;2.30;;;3.40;99.90;;;;;;6155399;23;20173;-78
2023/01/18 11:07:25;;;;;;;3.73;3.20;;;3.40;99.90;;;;;;6154924;23;20208;-78
2023/01/18 11:09:58;;;;;;;3.67;2.90;;;3.30;99.90;;;;;;6155967;23;20188;-79
2023/01/18 11:12:36;;;;;;;2.30;2.10;;;3.40;99.90;;;;;;6154610;23;20549;-78
2023/01/18 11:15:30;;;;;;;1.97;1.80;;;3.40;99.90;;;;;;6156497;23;20170;-78
2023/01/18 11:18:05;;;;;;;1.43;1.30;;;3.50;99.90;;;;;;6156398;23;20197;-79
2023/01/18 11:20:38;;;;;;;1.37;1.27;;;3.60;99.90;;;;;;6155360;23;20535;-80
2023/01/18 11:23:16;;;;;;;2.60;2.20;;;3.50;99.90;;;;;;6151580;23;20212;-78
2023/01/18 11:25:51;;;;;;;2.07;1.87;;;3.50;99.90;;;;;;6154296;23;20689;-78
2023/01/18 11:28:21;;;;;;;2.33;2.10;;;3.30;99.90;;;;;;6155889;23;20594;-80
2023/01/18 11:30:54;;;;;;;2.60;1.90;;;3.20;99.90;;;;;;6156293;23;20188;-77
2023/01/18 11:33:26;;;;;;;2.13;1.93;;;3.10;99.90;;;;;;6157394;23;20606;-79
2023/01/18 11:35:56;;;;;;;2.93;2.00;;;3.00;99.90;;;;;;6157157;23;20220;-78
2023/01/18 11:38:29;;;;;;;3.00;2.13;;;3.00;99.90;;;;;;6156572;23;20707;-78
2023/01/18 11:41:06;;;;;;;3.67;2.30;;;2.80;99.90;;;;;;6160180;23;20403;-79
2023/01/18 11:43:38;;;;;;;2.07;1.97;;;2.80;99.90;;;;;;6158908;23;20225;-78
2023/01/18 11:46:22;;;;;;;3.17;2.23;;;2.70;99.90;;;;;;6156806;23;20546;-77
2023/01/18 11:48:55;;;;;;;2.50;2.30;;;2.70;99.90;;;;;;6155771;23;20495;-77
2023/01/18 11:51:30;;;;;;;3.00;2.40;;;2.60;99.90;;;;;;6155394;23;20188;-79
2023/01/18 11:54:06;;;;;;;3.40;2.70;;;2.80;99.90;;;;;;6156867;23;20222;-78
2023/01/18 11:56:40;;;;;;;3.20;2.70;;;2.70;99.90;;;;;;6154820;23;20649;-80
2023/01/18 11:59:13;;;;;;;3.00;2.70;;;2.60;99.90;;;;;;6155699;23;20168;-77
2023/01/18 12:02:05;;;;;;;5.20;4.10;;;2.50;99.90;;;;;;6155732;23;20243;-77
2023/01/18 12:04:47;;;;;;;5.17;3.40;;;2.40;99.90;;;;;;6155937;23;20396;-78
2023/01/18 12:07:28;;;;;;;3.63;3.30;;;2.40;99.90;;;;;;6155263;23;20169;-79
2023/01/18 12:09:58;;;;;;;3.40;3.10;;;2.30;99.90;;;;;;6155048;23;20170;-77
2023/01/18 12:12:43;;;;;;;4.03;3.20;;;2.40;99.90;;;;;;6154495;23;20185;-77
2023/01/18 12:15:37;;;;;;;5.47;3.30;;;2.50;99.90;;;;;;6154620;23;20244;-78
2023/01/18 12:18:21;;;;;;;6.03;3.10;;;2.30;99.90;;;;;;6154544;23;20181;-79
2023/01/18 12:21:01;;;;;;;5.03;3.17;;;2.40;99.90;;;;;;6159357;23;20185;-78
2023/01/18 12:23:59;;;;;;;4.43;3.90;;;2.60;99.90;;;;;;6159979;23;20217;-79
2023/01/18 12:26:41;;;;;;;4.43;3.50;;;2.60;99.90;;;;;;6155580;23;20172;-79
2023/01/18 12:29:35;;;;;;;11.10;7.67;;;2.50;99.90;;;;;;6153292;23;20167;-79
2023/01/18 12:32:15;;;;;;;2.70;2.50;;;2.50;99.90;;;;;;6154267;23;20170;-78
2023/01/18 12:34:53;;;;;;;3.20;2.30;;;2.60;99.90;;;;;;6154516;23;20182;-78
2023/01/18 12:37:34;;;;;;;3.10;2.00;;;2.50;99.90;;;;;;6155697;23;20571;-78
2023/01/18 12:40:24;;;;;;;3.20;2.40;;;2.40;99.90;;;;;;6155500;23;20205;-79
2023/01/18 12:43:02;;;;;;;2.50;2.23;;;2.30;99.90;;;;;;6154656;23;20178;-78
2023/01/18 12:45:36;;;;;;;3.33;2.73;;;2.30;99.90;;;;;;6156015;23;20435;-78
2023/01/18 12:48:15;;;;;;;6.57;4.33;;;2.10;99.90;;;;;;6155125;23;20241;-78
2023/01/18 12:50:46;;;;;;;5.10;3.90;;;1.90;99.90;;;;;;6155382;23;20248;-79
2023/01/18 12:53:23;;;;;;;3.50;3.07;;;1.80;99.90;;;;;;6153721;23;20607;-77
2023/01/18 12:55:55;;;;;;;3.83;2.90;;;1.80;99.90;;;;;;6154765;23;20181;-78
2023/01/18 12:58:25;;;;;;;2.87;2.60;;;1.90;99.90;;;;;;6154223;23;20701;-78
2023/01/18 13:00:57;;;;;;;2.93;2.67;;;1.90;99.90;;;;;;6154383;23;20236;-79
2023/01/18 13:03:30;;;;;;;2.60;2.40;;;2.00;99.90;;;;;;6154005;23;20193;-78
2023/01/18 13:06:01;;;;;;;3.03;2.40;;;1.90;99.90;;;;;;6154989;23;20493;-79
2023/01/18 13:08:42;;;;;;;3.17;2.33;;;1.90;99.90;;;;;;6154531;23;20182;-79
2023/01/18 13:11:17;;;;;;;5.43;3.17;;;1.90;99.90;;;;;;6154308;23;20173;-78
2023/01/18 13:13:47;;;;;;;2.90;2.60;;;2.00;99.90;;;;;;6153592;23;20170;-78
2023/01/18 13:16:26;;;;;;;4.03;2.73;;;2.00;99.90;;;;;;6153840;23;20637;-78
2023/01/18 13:19:00;;;;;;;3.93;3.10;;;1.90;99.90;;;;;;6161875;23;20224;-78
2023/01/18 13:21:47;;;;;;;33.47;25.20;;;1.80;99.90;;;;;;6159662;23;20666;-79
2023/01/18 13:24:28;;;;;;;9.93;6.00;;;1.80;99.90;;;;;;6155408;23;20622;-79
2023/01/18 13:27:07;;;;;;;23.33;15.33;;;1.60;99.90;;;;;;6154418;23;20235;-79
2023/01/18 13:29:35;;;;;;;5.00;3.70;;;1.60;99.90;;;;;;6154470;23;20236;-79
2023/01/18 13:32:20;;;;;;;4.10;3.57;;;1.60;99.90;;;;;;6154022;23;20182;-80
2023/01/18 13:34:57;;;;;;;5.13;4.10;;;1.50;99.90;;;;;;6152744;23;20166;-77
2023/01/18 13:37:48;;;;;;;4.53;4.00;;;1.60;99.90;;;;;;6153211;23;20641;-78
2023/01/18 13:40:28;;;;;;;6.13;4.40;;;1.50;99.90;;;;;;6153459;23;20166;-79
2023/01/18 13:42:58;;;;;;;4.87;4.20;;;1.30;99.90;;;;;;6152009;23;20401;-79
2023/01/18 13:45:28;;;;;;;5.30;4.43;;;1.10;99.90;;;;;;6152091;23;20514;-79
2023/01/18 13:47:59;;;;;;;5.57;4.40;;;1.00;99.90;;;;;;6154571;23;20174;-79
2023/01/18 13:50:47;;;;;;;5.83;4.47;;;1.00;99.90;;;;;;6155668;23;20170;-79